createdAt,value
2023-02-23T00:02:09.581Z,97638.19
2023-02-23T00:04:38.511Z,97640.13
2023-02-23T00:07:07.062Z,97638.61
2023-02-23T00:09:38.001Z,97640.38
2023-02-23T00:12:10.375Z,97645.77
2023-02-23T00:14:39.205Z,97647.02
2023-02-23T00:17:15.070Z,97651.02
2023-02-23T00:19:44.086Z,97651.90
2023-02-23T00:22:13.004Z,97653.81
2023-02-23T00:24:43.101Z,97651.38
2023-02-23T00:27:17.964Z,97648.59
2023-02-23T00:29:50.573Z,97645.27
2023-02-23T00:32:20.211Z,97643.98
2023-02-23T00:34:52.266Z,97646.66
2023-02-23T00:37:23.325Z,97647.61
2023-02-23T00:39:53.281Z,97648.73
2023-02-23T00:42:22.167Z,97648.27
2023-02-23T00:44:51.117Z,97646.29
2023-02-23T00:47:19.407Z,97649.62
2023-02-23T00:49:50.710Z,97655.00
2023-02-23T00:52:20.354Z,97657.84
2023-02-23T00:54:48.587Z,97656.04
2023-02-23T00:57:16.895Z,97656.19
2023-02-23T00:59:44.870Z,97657.36
2023-02-23T01:02:13.015Z,97653.23
2023-02-23T01:04:41.576Z,97652.91
2023-02-23T01:07:13.052Z,97652.77
2023-02-23T01:09:41.370Z,97651.42
2023-02-23T01:12:09.908Z,97652.31
2023-02-23T01:14:41.822Z,97654.27
2023-02-23T01:17:19.551Z,97648.23
2023-02-23T01:19:51.166Z,97652.43
2023-02-23T01:22:21.961Z,97654.67
2023-02-23T01:24:50.872Z,97652.25
2023-02-23T01:27:22.954Z,97652.22
2023-02-23T01:29:55.065Z,97652.84
2023-02-23T01:32:23.452Z,97652.95
2023-02-23T01:34:51.494Z,97652.20
2023-02-23T01:37:19.810Z,97652.48
2023-02-23T01:39:47.881Z,97648.64
2023-02-23T01:42:16.487Z,97646.00
2023-02-23T01:44:48.117Z,97648.16
2023-02-23T01:47:17.754Z,97645.34
2023-02-23T01:49:47.369Z,97649.60
2023-02-23T01:52:19.834Z,97648.59
2023-02-23T01:54:55.343Z,97643.97
2023-02-23T01:57:27.776Z,97644.86
2023-02-23T01:59:56.255Z,97642.79
2023-02-23T02:02:33.966Z,97644.88
2023-02-23T02:05:08.428Z,97646.47
2023-02-23T02:07:39.854Z,97650.47
2023-02-23T02:10:12.250Z,97651.16
2023-02-23T02:12:55.389Z,97648.42
2023-02-23T02:15:34.222Z,97648.42
2023-02-23T02:18:27.384Z,97646.33
2023-02-23T02:21:26.625Z,97645.93
2023-02-23T02:24:19.471Z,97647.23
2023-02-23T02:27:00.786Z,97648.16
2023-02-23T02:30:03.205Z,97650.48
2023-02-23T02:32:49.533Z,97651.06
2023-02-23T02:35:42.124Z,97648.89
2023-02-23T02:38:54.035Z,97647.39
2023-02-23T02:41:44.933Z,97651.73
2023-02-23T02:44:27.742Z,97655.74
2023-02-23T02:47:04.829Z,97657.39
2023-02-23T02:49:43.825Z,97655.81
2023-02-23T02:52:25.235Z,97655.12
2023-02-23T02:54:59.542Z,97656.84
2023-02-23T02:57:30.030Z,97660.47
2023-02-23T03:00:16.995Z,97661.24
2023-02-23T03:03:05.912Z,97664.41
2023-02-23T03:06:04.463Z,97664.98
2023-02-23T03:09:17.318Z,97666.25
2023-02-23T03:12:16.561Z,97665.41
2023-02-23T03:15:19.046Z,97665.08
2023-02-23T03:18:10.404Z,97664.19
2023-02-23T03:21:06.565Z,97666.02
2023-02-23T03:24:15.074Z,97670.21
2023-02-23T03:27:11.476Z,97671.10
2023-02-23T03:30:18.779Z,97668.38
2023-02-23T03:33:07.883Z,97670.44
2023-02-23T03:36:38.224Z,97670.14
2023-02-23T03:39:31.408Z,97667.92
2023-02-23T03:42:23.475Z,97669.67
2023-02-23T03:45:13.290Z,97667.72
2023-02-23T03:48:02.053Z,97667.16
2023-02-23T03:51:00.712Z,97672.81
2023-02-23T03:53:58.173Z,97674.04
2023-02-23T03:56:48.925Z,97676.31
2023-02-23T03:59:40.990Z,97676.52
2023-02-23T04:02:29.747Z,97678.48
2023-02-23T04:05:20.570Z,97678.69
2023-02-23T04:08:12.662Z,97680.29
2023-02-23T04:11:08.218Z,97684.27
2023-02-23T04:13:38.935Z,97682.56
2023-02-23T04:16:09.838Z,97685.00
2023-02-23T04:18:40.373Z,97685.31
2023-02-23T04:21:10.244Z,97686.52
2023-02-23T04:23:42.732Z,97689.20
2023-02-23T04:26:11.265Z,97687.73
2023-02-23T04:28:39.702Z,97688.68
2023-02-23T04:31:08.162Z,97685.63
2023-02-23T04:33:38.994Z,97687.72
2023-02-23T04:36:08.211Z,97686.52
2023-02-23T04:38:36.753Z,97688.96
2023-02-23T04:41:05.219Z,97685.38
2023-02-23T04:43:33.656Z,97683.84
2023-02-23T04:46:03.613Z,97686.78
2023-02-23T04:48:35.802Z,97689.04
2023-02-23T04:51:06.082Z,97687.33
2023-02-23T04:53:34.560Z,97688.54
2023-02-23T04:56:02.885Z,97688.97
2023-02-23T04:58:31.445Z,97690.75
2023-02-23T05:01:06.690Z,97691.36
2023-02-23T05:03:36.316Z,97693.89
2023-02-23T05:06:12.596Z,97693.55
2023-02-23T05:08:44.030Z,97691.34
2023-02-23T05:11:20.607Z,97692.25
2023-02-23T05:13:49.187Z,97694.92
2023-02-23T05:16:21.041Z,97699.81
2023-02-23T05:18:56.459Z,97701.27
2023-02-23T05:21:37.018Z,97704.18
2023-02-23T05:24:08.195Z,97708.68
2023-02-23T05:26:37.391Z,97713.45
2023-02-23T05:29:07.157Z,97713.29
2023-02-23T05:31:35.752Z,97716.75
2023-02-23T05:34:13.448Z,97720.40
2023-02-23T05:36:46.009Z,97715.95
2023-02-23T05:39:14.383Z,97716.34
2023-02-23T05:41:47.149Z,97722.55
2023-02-23T05:44:15.711Z,97721.40
2023-02-23T05:46:50.587Z,97725.05
2023-02-23T05:49:20.249Z,97727.84
2023-02-23T05:51:49.692Z,97731.50
2023-02-23T05:54:17.992Z,97730.88
2023-02-23T05:56:46.685Z,97732.81
2023-02-23T05:59:14.831Z,97735.38
2023-02-23T06:01:43.138Z,97737.22
2023-02-23T06:04:11.299Z,97739.82
2023-02-23T06:06:40.155Z,97740.35
2023-02-23T06:09:08.491Z,97747.07
2023-02-23T06:11:37.114Z,97749.94
2023-02-23T06:14:05.172Z,97749.90
2023-02-23T06:16:33.354Z,97751.09
2023-02-23T06:19:01.585Z,97753.03
2023-02-23T06:21:31.247Z,97755.45
2023-02-23T06:24:01.282Z,97757.66
2023-02-23T06:26:30.001Z,97754.80
2023-02-23T06:28:58.143Z,97755.20
2023-02-23T06:31:27.467Z,97755.50
2023-02-23T06:33:56.326Z,97756.63
2023-02-23T06:36:25.006Z,97754.30
2023-02-23T06:38:58.109Z,97760.39
2023-02-23T06:41:27.415Z,97759.97
2023-02-23T06:43:55.997Z,97758.80
2023-02-23T06:46:25.167Z,97755.98
2023-02-23T06:48:57.634Z,97756.64
2023-02-23T06:51:26.589Z,97754.48
2023-02-23T06:53:55.214Z,97751.43
2023-02-23T06:56:25.687Z,97750.73
2023-02-23T06:58:54.318Z,97747.98
2023-02-23T07:01:22.917Z,97750.96
2023-02-23T07:03:51.701Z,97756.45
2023-02-23T07:06:20.410Z,97755.55
2023-02-23T07:08:49.659Z,97753.42
2023-02-23T07:11:19.888Z,97748.48
2023-02-23T07:13:49.157Z,97749.05
2023-02-23T07:16:20.298Z,97747.95
2023-02-23T07:18:49.427Z,97748.05
2023-02-23T07:21:18.326Z,97747.45
2023-02-23T07:23:49.970Z,97749.14
2023-02-23T07:26:18.800Z,97748.54
2023-02-23T07:28:47.223Z,97747.41
2023-02-23T07:31:16.149Z,97747.77
2023-02-23T07:33:45.950Z,97749.50
2023-02-23T07:36:14.787Z,97747.13
2023-02-23T07:38:43.284Z,97744.98
2023-02-23T07:41:11.846Z,97743.52
2023-02-23T07:43:40.352Z,97743.39
2023-02-23T07:46:09.396Z,97742.19
2023-02-23T07:48:42.785Z,97742.87
2023-02-23T07:51:13.601Z,97741.30
2023-02-23T07:53:44.944Z,97742.71
2023-02-23T07:56:15.222Z,97741.84
2023-02-23T07:58:45.096Z,97744.39
2023-02-23T08:01:17.958Z,97744.11
2023-02-23T08:03:51.305Z,97741.58
2023-02-23T08:06:20.903Z,97741.95
2023-02-23T08:08:50.137Z,97740.79
2023-02-23T08:11:19.875Z,97740.84
2023-02-23T08:13:49.666Z,97739.25
2023-02-23T08:16:18.783Z,97738.35
2023-02-23T08:18:48.714Z,97739.58
2023-02-23T08:21:18.045Z,97734.64
2023-02-23T08:23:46.612Z,97733.68
2023-02-23T08:26:15.702Z,97733.06
2023-02-23T08:28:46.060Z,97732.25
2023-02-23T08:31:21.952Z,97730.08
2023-02-23T08:33:52.474Z,97727.16
2023-02-23T08:36:21.634Z,97729.04
2023-02-23T08:38:50.949Z,97729.54
2023-02-23T08:41:19.757Z,97728.23
2023-02-23T08:43:49.369Z,97726.90
2023-02-23T08:46:20.463Z,97726.45
2023-02-23T08:48:49.866Z,97725.45
2023-02-23T08:51:19.279Z,97724.30
2023-02-23T08:53:48.633Z,97725.71
2023-02-23T08:56:17.896Z,97725.02
2023-02-23T08:58:47.776Z,97726.75
2023-02-23T09:01:22.469Z,97727.98
2023-02-23T09:03:52.209Z,97726.45
2023-02-23T09:06:25.514Z,97728.91
2023-02-23T09:08:56.410Z,97728.40
2023-02-23T09:11:27.059Z,97722.52
2023-02-23T09:13:56.648Z,97721.85
2023-02-23T09:16:25.661Z,97718.23
2023-02-23T09:18:55.750Z,97716.33
2023-02-23T09:21:28.733Z,97714.77
2023-02-23T09:24:00.067Z,97713.21
2023-02-23T09:26:29.621Z,97716.86
2023-02-23T09:29:01.765Z,97716.86
2023-02-23T09:31:32.794Z,97713.73
2023-02-23T09:34:04.320Z,97711.98
2023-02-23T09:36:33.028Z,97709.72
2023-02-23T09:39:03.125Z,97708.84
2023-02-23T09:41:54.267Z,97706.91
2023-02-23T09:44:59.316Z,97710.89
2023-02-23T09:47:53.217Z,97708.80
2023-02-23T09:50:26.198Z,97703.56
2023-02-23T09:53:11.107Z,97700.05
2023-02-23T09:55:43.675Z,97696.72
2023-02-23T09:58:26.218Z,97696.19
2023-02-23T10:01:10.205Z,97690.77
2023-02-23T10:03:50.336Z,97690.86
2023-02-23T10:06:21.467Z,97691.33
2023-02-23T10:09:28.381Z,97691.47
2023-02-23T10:12:10.347Z,97688.13
2023-02-23T10:15:19.033Z,97684.39
2023-02-23T10:18:03.272Z,97676.61
2023-02-23T10:21:30.027Z,97680.33
2023-02-23T10:24:04.129Z,97680.62
2023-02-23T10:26:49.908Z,97675.52
2023-02-23T10:29:23.952Z,97672.64
2023-02-23T10:31:59.230Z,97670.30
2023-02-23T10:34:29.484Z,97665.89
2023-02-23T10:37:00.230Z,97664.76
2023-02-23T10:39:32.076Z,97661.53
2023-02-23T10:42:06.069Z,97658.64
2023-02-23T10:44:38.406Z,97655.11
2023-02-23T10:47:17.304Z,97651.25
2023-02-23T10:49:49.226Z,97651.70
2023-02-23T10:52:41.700Z,97647.91
2023-02-23T10:55:26.416Z,97641.32
2023-02-23T10:58:20.703Z,97640.35
2023-02-23T11:00:53.967Z,97636.11
2023-02-23T11:03:36.370Z,97631.17
2023-02-23T11:06:05.547Z,97630.77
2023-02-23T11:08:37.213Z,97625.69
2023-02-23T11:11:21.124Z,97622.77
2023-02-23T11:13:51.544Z,97616.30
2023-02-23T11:16:24.549Z,97614.48
2023-02-23T11:19:05.710Z,97612.48
2023-02-23T11:21:39.135Z,97611.81
2023-02-23T11:24:24.151Z,97609.95
2023-02-23T11:26:58.202Z,97605.63
2023-02-23T11:29:44.165Z,97604.18
2023-02-23T11:32:19.825Z,97603.02
2023-02-23T11:35:16.144Z,97601.69
2023-02-23T11:37:45.546Z,97604.43
2023-02-23T11:40:22.944Z,97603.11
2023-02-23T11:43:17.021Z,97600.43
2023-02-23T11:45:49.461Z,97598.70
2023-02-23T11:48:27.598Z,97597.02
2023-02-23T11:50:57.532Z,97590.51
2023-02-23T11:53:32.640Z,97594.10
2023-02-23T11:56:08.507Z,97595.81
2023-02-23T11:58:56.649Z,97595.05
2023-02-23T12:01:47.310Z,97589.36
2023-02-23T12:04:33.531Z,97586.67
2023-02-23T12:07:24.464Z,97585.35
2023-02-23T12:10:03.801Z,97582.10
2023-02-23T12:12:40.746Z,97579.73
2023-02-23T12:15:48.490Z,97577.70
2023-02-23T12:18:46.794Z,97570.19
2023-02-23T12:21:20.355Z,97567.67
2023-02-23T12:23:52.945Z,97568.96
2023-02-23T12:26:23.712Z,97567.45
2023-02-23T12:29:05.396Z,97562.98
2023-02-23T12:31:54.277Z,97560.10
2023-02-23T12:34:33.973Z,97557.86
2023-02-23T12:37:40.471Z,97555.34
2023-02-23T12:40:24.559Z,97551.89
2023-02-23T12:43:09.250Z,97544.17
2023-02-23T12:46:08.437Z,97545.53
2023-02-23T12:48:50.362Z,97543.91
2023-02-23T12:51:21.880Z,97541.66
2023-02-23T12:53:50.257Z,97541.26
2023-02-23T12:56:49.502Z,97538.67
2023-02-23T12:59:49.385Z,97538.81
2023-02-23T13:02:30.147Z,97534.35
2023-02-23T13:05:15.789Z,97533.14
2023-02-23T13:08:13.581Z,97535.33
2023-02-23T13:10:56.195Z,97535.47
2023-02-23T13:13:51.147Z,97533.98
2023-02-23T13:16:44.534Z,97534.17
2023-02-23T13:19:22.394Z,97534.19
2023-02-23T13:22:06.585Z,97532.79
2023-02-23T13:24:43.551Z,97529.20
2023-02-23T13:27:38.277Z,97530.67
2023-02-23T13:30:11.835Z,97533.30
2023-02-23T13:32:40.622Z,97529.52
2023-02-23T13:35:19.375Z,97526.45
2023-02-23T13:38:13.154Z,97529.30
2023-02-23T13:40:51.404Z,97527.77
2023-02-23T13:43:30.388Z,97526.98
2023-02-23T13:46:31.721Z,97529.60
2023-02-23T13:49:04.492Z,97527.39
2023-02-23T13:51:36.003Z,97522.02
2023-02-23T13:54:24.905Z,97525.41
2023-02-23T13:57:01.562Z,97523.41
2023-02-23T13:59:37.842Z,97521.86
2023-02-23T14:02:41.268Z,97521.37
2023-02-23T14:05:21.324Z,97517.27
2023-02-23T14:07:54.302Z,97517.80
2023-02-23T14:10:30.436Z,97516.23
2023-02-23T14:13:14.078Z,97515.86
2023-02-23T14:15:53.890Z,97518.67
2023-02-23T14:18:22.342Z,97521.21
2023-02-23T14:21:20.578Z,97520.22
2023-02-23T14:23:54.659Z,97520.59
2023-02-23T14:26:29.485Z,97518.50
2023-02-23T14:29:20.448Z,97516.46
2023-02-23T14:32:21.315Z,97517.31
2023-02-23T14:34:59.393Z,97516.45
2023-02-23T14:37:32.305Z,97518.08
2023-02-23T14:40:14.126Z,97514.51
2023-02-23T14:42:48.000Z,97510.13
2023-02-23T14:45:27.437Z,97510.42
2023-02-23T14:48:02.582Z,97507.39
2023-02-23T14:50:35.306Z,97503.69
2023-02-23T14:53:09.928Z,97504.98
2023-02-23T14:55:43.618Z,97500.73
2023-02-23T14:58:26.344Z,97499.08
2023-02-23T15:00:55.396Z,97500.45
2023-02-23T15:03:24.122Z,97496.89
2023-02-23T15:06:02.426Z,97498.70
2023-02-23T15:08:34.125Z,97498.75
2023-02-23T15:11:13.532Z,97497.58
2023-02-23T15:13:50.554Z,97494.84
2023-02-23T15:16:28.625Z,97493.90
2023-02-23T15:19:00.712Z,97495.98
2023-02-23T15:21:29.695Z,97492.64
2023-02-23T15:24:13.811Z,97491.31
2023-02-23T15:26:43.973Z,97494.53
2023-02-23T15:29:22.478Z,97493.73
2023-02-23T15:31:55.820Z,97496.80
2023-02-23T15:34:30.875Z,97494.98
2023-02-23T15:37:38.086Z,97497.71
2023-02-23T15:40:15.165Z,97495.63
2023-02-23T15:42:51.423Z,97496.66
2023-02-23T15:45:35.209Z,97497.02
2023-02-23T15:48:07.958Z,97500.38
2023-02-23T15:50:42.794Z,97500.93
2023-02-23T15:53:22.762Z,97502.35
2023-02-23T15:56:03.192Z,97504.98
2023-02-23T15:58:42.050Z,97505.55
2023-02-23T16:01:29.767Z,97508.02
2023-02-23T16:04:07.484Z,97509.95
2023-02-23T16:06:41.976Z,97511.36
2023-02-23T16:09:24.416Z,97510.63
2023-02-23T16:11:55.589Z,97511.63
2023-02-23T16:14:25.608Z,97509.48
2023-02-23T16:17:10.516Z,97506.81
2023-02-23T16:19:42.102Z,97510.54
2023-02-23T16:22:22.842Z,97511.83
2023-02-23T16:25:01.460Z,97510.70
2023-02-23T16:27:30.802Z,97513.25
2023-02-23T16:30:25.165Z,97515.80
2023-02-23T16:33:24.698Z,97516.64
2023-02-23T16:36:08.432Z,97514.88
2023-02-23T16:39:01.830Z,97519.01
2023-02-23T16:41:34.889Z,97520.06
2023-02-23T16:44:06.114Z,97518.48
2023-02-23T16:47:02.124Z,97519.46
2023-02-23T16:49:31.622Z,97522.36
2023-02-23T16:52:01.951Z,97525.08
2023-02-23T16:54:30.814Z,97528.84
2023-02-23T16:56:59.672Z,97529.80
2023-02-23T16:59:29.110Z,97530.40
2023-02-23T17:01:57.701Z,97535.70
2023-02-23T17:04:26.891Z,97538.75
2023-02-23T17:06:58.018Z,97540.92
2023-02-23T17:09:27.713Z,97538.18
2023-02-23T17:11:57.994Z,97537.14
2023-02-23T17:14:28.776Z,97535.61
2023-02-23T17:16:57.457Z,97535.29
2023-02-23T17:19:26.300Z,97531.85
2023-02-23T17:21:54.508Z,97532.77
2023-02-23T17:24:26.316Z,97530.92
2023-02-23T17:26:55.687Z,97533.56
2023-02-23T17:29:24.995Z,97533.58
2023-02-23T17:31:53.771Z,97531.17
2023-02-23T17:34:23.624Z,97530.11
2023-02-23T17:36:52.215Z,97527.70
2023-02-23T17:39:20.680Z,97530.68
2023-02-23T17:41:49.393Z,97526.55
2023-02-23T17:44:17.712Z,97522.43
2023-02-23T17:46:46.033Z,97526.85
2023-02-23T17:49:14.358Z,97528.31
2023-02-23T17:51:42.645Z,97528.89
2023-02-23T17:54:10.967Z,97529.13
2023-02-23T17:56:39.609Z,97531.47
2023-02-23T17:59:07.843Z,97534.48
2023-02-23T18:01:36.134Z,97531.79
2023-02-23T18:04:04.804Z,97530.45
2023-02-23T18:06:33.157Z,97531.59
2023-02-23T18:09:01.439Z,97529.69
2023-02-23T18:11:29.602Z,97532.34
2023-02-23T18:13:57.783Z,97530.12
2023-02-23T18:16:26.468Z,97528.27
2023-02-23T18:18:57.662Z,97527.77
2023-02-23T18:21:26.106Z,97526.94
2023-02-23T18:23:54.926Z,97524.71
2023-02-23T18:26:24.434Z,97526.47
2023-02-23T18:28:54.364Z,97525.45
2023-02-23T18:31:25.655Z,97527.89
2023-02-23T18:33:54.828Z,97531.55
2023-02-23T18:36:30.036Z,97534.15
2023-02-23T18:38:59.472Z,97528.78
2023-02-23T18:41:31.121Z,97527.39
2023-02-23T18:44:01.809Z,97529.46
2023-02-23T18:46:31.364Z,97531.21
2023-02-23T18:49:00.394Z,97524.95
2023-02-23T18:51:29.016Z,97527.20
2023-02-23T18:53:57.905Z,97524.25
2023-02-23T18:56:28.418Z,97525.46
2023-02-23T18:58:59.964Z,97526.50
2023-02-23T19:01:31.315Z,97527.55
2023-02-23T19:04:02.715Z,97527.73
2023-02-23T19:06:32.318Z,97530.85
2023-02-23T19:09:04.361Z,97531.38
2023-02-23T19:11:34.625Z,97530.69
2023-02-23T19:14:08.919Z,97534.68
2023-02-23T19:16:38.354Z,97533.32
2023-02-23T19:19:08.710Z,97535.58
2023-02-23T19:21:38.346Z,97541.32
2023-02-23T19:24:07.648Z,97540.98
2023-02-23T19:26:38.380Z,97540.64
2023-02-23T19:29:07.068Z,97542.73
2023-02-23T19:31:37.576Z,97545.50
2023-02-23T19:34:09.076Z,97547.23
2023-02-23T19:36:37.989Z,97543.95
2023-02-23T19:39:10.954Z,97546.02
2023-02-23T19:41:40.761Z,97547.42
2023-02-23T19:44:10.356Z,97543.77
2023-02-23T19:46:40.205Z,97547.92
2023-02-23T19:49:08.271Z,97546.20
2023-02-23T19:51:36.713Z,97544.46
2023-02-23T19:54:06.702Z,97542.22
2023-02-23T19:56:35.486Z,97543.77
2023-02-23T19:59:04.910Z,97542.56
2023-02-23T20:01:33.478Z,97544.11
2023-02-23T20:04:02.463Z,97540.30
2023-02-23T20:06:38.041Z,97540.13
2023-02-23T20:09:07.781Z,97540.83
2023-02-23T20:11:36.934Z,97538.23
2023-02-23T20:14:08.251Z,97534.95
2023-02-23T20:16:37.331Z,97533.91
2023-02-23T20:19:07.879Z,97533.75
2023-02-23T20:21:36.947Z,97534.25
2023-02-23T20:24:05.800Z,97529.73
2023-02-23T20:26:37.403Z,97531.46
2023-02-23T20:29:11.169Z,97532.48
2023-02-23T20:31:42.117Z,97532.14
2023-02-23T20:34:12.333Z,97527.80
2023-02-23T20:36:40.574Z,97529.70
2023-02-23T20:39:11.107Z,97531.25
2023-02-23T20:41:43.558Z,97530.92
2023-02-23T20:44:13.986Z,97528.15
2023-02-23T20:46:44.449Z,97528.15
2023-02-23T20:49:13.458Z,97528.66
2023-02-23T20:51:45.125Z,97528.66
2023-02-23T20:54:15.493Z,97522.09
2023-02-23T20:56:45.440Z,97520.88
2023-02-23T20:59:14.086Z,97520.71
2023-02-23T21:01:47.295Z,97523.30
2023-02-23T21:04:16.569Z,97519.83
2023-02-23T21:06:44.765Z,97520.16
2023-02-23T21:09:18.082Z,97519.63
2023-02-23T21:11:48.382Z,97521.34
2023-02-23T21:14:17.620Z,97522.71
2023-02-23T21:16:46.713Z,97522.51
2023-02-23T21:19:17.681Z,97527.67
2023-02-23T21:21:51.395Z,97535.08
2023-02-23T21:24:21.371Z,97535.20
2023-02-23T21:26:50.166Z,97532.93
2023-02-23T21:29:18.778Z,97531.01
2023-02-23T21:31:47.270Z,97531.48
2023-02-23T21:34:18.957Z,97534.39
2023-02-23T21:36:48.566Z,97535.58
2023-02-23T21:39:16.867Z,97532.09
2023-02-23T21:41:45.227Z,97534.84
2023-02-23T21:44:13.983Z,97536.38
2023-02-23T21:46:42.733Z,97538.11
2023-02-23T21:49:11.040Z,97538.46
2023-02-23T21:51:42.200Z,97539.86
2023-02-23T21:54:11.205Z,97540.73
2023-02-23T21:56:39.506Z,97539.51
2023-02-23T21:59:11.004Z,97537.63
2023-02-23T22:01:41.125Z,97541.26
2023-02-23T22:04:13.768Z,97539.70
2023-02-23T22:06:45.172Z,97539.50
2023-02-23T22:09:16.654Z,97539.29
2023-02-23T22:11:47.494Z,97535.95
2023-02-23T22:14:18.913Z,97533.14
2023-02-23T22:16:47.971Z,97537.95
2023-02-23T22:19:18.575Z,97537.90
2023-02-23T22:21:50.207Z,97537.15
2023-02-23T22:24:19.134Z,97533.67
2023-02-23T22:26:54.440Z,97535.72
2023-02-23T22:29:24.956Z,97538.47
2023-02-23T22:31:53.435Z,97535.66
2023-02-23T22:34:22.130Z,97535.30
2023-02-23T22:36:50.783Z,97534.09
2023-02-23T22:39:19.237Z,97533.91
2023-02-23T22:41:48.323Z,97533.40
2023-02-23T22:44:21.652Z,97529.60
2023-02-23T22:46:50.582Z,97526.83
2023-02-23T22:49:20.694Z,97526.81
2023-02-23T22:51:50.836Z,97530.59
2023-02-23T22:54:20.770Z,97531.77
2023-02-23T22:56:49.397Z,97531.20
2023-02-23T22:59:20.757Z,97526.66
2023-02-23T23:01:50.629Z,97526.27
2023-02-23T23:04:22.204Z,97522.77
2023-02-23T23:06:50.866Z,97525.96
2023-02-23T23:09:21.467Z,97521.59
2023-02-23T23:11:52.821Z,97522.05
2023-02-23T23:14:23.359Z,97518.35
2023-02-23T23:16:51.785Z,97517.60
2023-02-23T23:19:24.412Z,97518.25
2023-02-23T23:21:55.552Z,97519.41
2023-02-23T23:24:25.171Z,97524.59
2023-02-23T23:26:55.779Z,97525.98
2023-02-23T23:29:26.180Z,97523.37
2023-02-23T23:31:57.172Z,97525.64
2023-02-23T23:34:25.937Z,97523.59
2023-02-23T23:36:55.594Z,97517.90
2023-02-23T23:39:26.393Z,97513.60
2023-02-23T23:41:54.928Z,97511.19
2023-02-23T23:44:29.668Z,97513.80
2023-02-23T23:46:58.672Z,97514.17
2023-02-23T23:49:27.320Z,97509.36
2023-02-23T23:51:57.047Z,97507.83
2023-02-23T23:54:31.185Z,97508.84
2023-02-23T23:57:04.029Z,97506.20
2023-02-23T23:59:34.403Z,97500.95
